createdAt,value
2023-04-24T00:01:25.969Z,99.90
2023-04-24T00:03:54.482Z,99.90
2023-04-24T00:06:24.695Z,99.90
2023-04-24T00:08:52.885Z,99.90
2023-04-24T00:11:21.382Z,99.90
2023-04-24T00:13:49.684Z,99.90
2023-04-24T00:16:17.852Z,99.90
2023-04-24T00:18:48.863Z,99.90
2023-04-24T00:21:18.729Z,99.90
2023-04-24T00:23:47.010Z,99.90
2023-04-24T00:26:15.357Z,99.90
2023-04-24T00:28:45.932Z,99.90
2023-04-24T00:31:14.790Z,99.90
2023-04-24T00:33:43.234Z,99.90
2023-04-24T00:36:12.995Z,99.90
2023-04-24T00:38:41.496Z,99.90
2023-04-24T00:41:09.708Z,1.00
2023-04-24T00:43:37.907Z,1.00
2023-04-24T00:46:06.857Z,1.00
2023-04-24T00:48:36.032Z,1.00
2023-04-24T00:51:04.236Z,1.00
2023-04-24T00:53:33.965Z,1.00
2023-04-24T00:56:02.554Z,1.00
2023-04-24T00:58:31.692Z,1.00
2023-04-24T01:01:02.171Z,9.60
2023-04-24T01:03:33.284Z,74.10
2023-04-24T01:06:01.882Z,99.90
2023-04-24T01:08:31.112Z,99.90
2023-04-24T01:11:00.931Z,99.90
2023-04-24T01:13:29.794Z,99.90
2023-04-24T01:15:58.001Z,99.90
2023-04-24T01:18:26.379Z,99.90
2023-04-24T01:20:58.090Z,99.90
2023-04-24T01:23:28.308Z,99.90
2023-04-24T01:25:56.667Z,99.90
2023-04-24T01:28:25.489Z,99.90
2023-04-24T01:30:53.867Z,99.90
2023-04-24T01:33:25.159Z,99.90
2023-04-24T01:35:53.833Z,99.90
2023-04-24T01:38:21.952Z,1.00
2023-04-24T01:40:54.230Z,1.00
2023-04-24T01:43:22.554Z,99.90
2023-04-24T01:45:51.106Z,99.90
2023-04-24T01:48:19.402Z,99.90
2023-04-24T01:50:48.315Z,99.90
2023-04-24T01:53:16.712Z,99.90
2023-04-24T01:55:45.045Z,99.90
2023-04-24T01:58:16.477Z,99.90
2023-04-24T02:00:44.662Z,99.90
2023-04-24T02:03:12.988Z,99.90
2023-04-24T02:05:41.321Z,99.90
2023-04-24T02:08:09.533Z,99.90
2023-04-24T02:10:39.628Z,99.90
2023-04-24T02:13:07.946Z,99.90
2023-04-24T02:15:37.988Z,99.90
2023-04-24T02:18:07.871Z,99.90
2023-04-24T02:20:36.522Z,99.90
2023-04-24T02:23:04.710Z,99.90
2023-04-24T02:25:32.909Z,99.90
2023-04-24T02:28:01.087Z,99.90
2023-04-24T02:30:29.366Z,99.90
2023-04-24T02:32:58.992Z,99.90
2023-04-24T02:35:27.377Z,99.90
2023-04-24T02:37:55.636Z,99.90
2023-04-24T02:40:23.924Z,99.90
2023-04-24T02:42:52.097Z,99.90
2023-04-24T02:45:20.212Z,99.90
2023-04-24T02:47:48.385Z,99.90
2023-04-24T02:50:18.129Z,91.00
2023-04-24T02:52:46.467Z,81.80
2023-04-24T02:55:15.440Z,51.60
2023-04-24T02:57:43.616Z,22.60
2023-04-24T03:00:13.046Z,9.10
2023-04-24T03:02:41.453Z,18.30
2023-04-24T03:05:12.962Z,34.00
2023-04-24T03:07:42.509Z,1.00
2023-04-24T03:10:11.379Z,1.00
2023-04-24T03:12:39.525Z,1.00
2023-04-24T03:15:09.163Z,1.00
2023-04-24T03:17:39.058Z,8.60
2023-04-24T03:20:09.215Z,89.40
2023-04-24T03:22:38.232Z,99.30
2023-04-24T03:25:11.556Z,99.90
2023-04-24T03:27:40.361Z,99.90
2023-04-24T03:30:27.246Z,99.90
2023-04-24T03:33:00.452Z,99.90
2023-04-24T03:35:32.234Z,99.90
2023-04-24T03:38:05.325Z,99.90
2023-04-24T03:40:53.348Z,1.00
2023-04-24T03:43:36.685Z,1.00
2023-04-24T03:46:06.595Z,1.00
2023-04-24T03:48:38.851Z,1.00
2023-04-24T03:51:08.634Z,1.00
2023-04-24T03:53:38.634Z,1.00
2023-04-24T03:56:08.800Z,1.00
2023-04-24T03:58:37.337Z,1.00
2023-04-24T04:01:06.660Z,1.00
2023-04-24T04:04:07.288Z,1.00
2023-04-24T04:06:38.236Z,1.00
2023-04-24T04:09:08.192Z,1.00
2023-04-24T04:11:39.135Z,1.00
2023-04-24T04:14:07.437Z,1.00
2023-04-24T04:16:38.445Z,1.00
2023-04-24T04:19:10.615Z,1.00
2023-04-24T04:21:38.840Z,1.00
2023-04-24T04:24:27.632Z,1.00
2023-04-24T04:26:59.227Z,1.00
2023-04-24T04:29:34.144Z,99.90
2023-04-24T04:32:04.117Z,99.90
2023-04-24T04:34:34.197Z,1.00
2023-04-24T04:37:03.171Z,1.00
2023-04-24T04:39:51.549Z,1.00
2023-04-24T04:42:24.808Z,1.00
2023-04-24T04:44:53.594Z,1.00
2023-04-24T04:47:29.652Z,1.00
2023-04-24T04:49:59.029Z,1.00
2023-04-24T04:52:29.442Z,1.00
2023-04-24T04:55:07.579Z,1.00
2023-04-24T04:58:01.358Z,1.00
2023-04-24T05:00:37.025Z,1.00
2023-04-24T05:03:20.887Z,1.00
2023-04-24T05:05:55.259Z,1.00
2023-04-24T05:08:27.563Z,1.00
2023-04-24T05:10:57.295Z,1.00
2023-04-24T05:13:39.338Z,1.00
2023-04-24T05:16:20.145Z,1.00
2023-04-24T05:18:50.065Z,1.00
2023-04-24T05:21:22.096Z,1.00
2023-04-24T05:23:53.035Z,1.00
2023-04-24T05:26:36.714Z,1.00
2023-04-24T05:29:07.437Z,1.00
2023-04-24T05:31:38.636Z,1.00
2023-04-24T05:34:07.527Z,1.00
2023-04-24T05:36:36.744Z,1.00
2023-04-24T05:39:08.096Z,1.00
2023-04-24T05:41:36.949Z,1.00
2023-04-24T05:44:05.257Z,1.00
2023-04-24T05:46:34.899Z,1.00
2023-04-24T05:49:03.484Z,99.90
2023-04-24T05:51:33.772Z,99.90
2023-04-24T05:54:02.772Z,99.90
2023-04-24T05:56:31.829Z,1.00
2023-04-24T05:59:01.828Z,1.00
2023-04-24T06:01:30.771Z,99.90
2023-04-24T06:04:09.629Z,99.90
2023-04-24T06:06:38.326Z,99.90
2023-04-24T06:09:06.623Z,99.90
2023-04-24T06:11:35.965Z,99.90
2023-04-24T06:14:05.717Z,99.90
2023-04-24T06:16:40.179Z,99.90
2023-04-24T06:19:21.692Z,99.90
2023-04-24T06:21:49.992Z,99.90
2023-04-24T06:24:18.508Z,99.90
2023-04-24T06:26:46.757Z,99.90
2023-04-24T06:29:15.020Z,99.90
2023-04-24T06:31:43.309Z,99.90
2023-04-24T06:34:12.322Z,99.90
2023-04-24T06:36:42.110Z,99.90
2023-04-24T06:39:10.521Z,99.90
2023-04-24T06:41:41.011Z,99.90
2023-04-24T06:44:11.512Z,99.90
2023-04-24T06:46:41.687Z,99.90
2023-04-24T06:49:10.322Z,99.90
2023-04-24T06:51:38.544Z,99.90
2023-04-24T06:54:08.327Z,99.90
2023-04-24T06:56:36.584Z,99.90
2023-04-24T06:59:04.878Z,99.90
2023-04-24T07:01:33.124Z,99.90
2023-04-24T07:04:01.781Z,99.90
2023-04-24T07:06:31.647Z,99.90
2023-04-24T07:09:00.787Z,99.90
2023-04-24T07:11:30.583Z,99.90
2023-04-24T07:13:59.072Z,99.90
2023-04-24T07:16:27.373Z,99.90
2023-04-24T07:18:55.713Z,99.90
2023-04-24T07:21:24.067Z,99.90
2023-04-24T07:23:52.244Z,99.90
2023-04-24T07:26:20.586Z,99.90
2023-04-24T07:28:50.361Z,99.90
2023-04-24T07:31:18.640Z,99.90
2023-04-24T07:33:46.822Z,99.90
2023-04-24T07:36:18.015Z,99.90
2023-04-24T07:38:46.504Z,99.90
2023-04-24T07:41:14.809Z,99.90
2023-04-24T07:43:43.087Z,99.90
2023-04-24T07:46:12.826Z,99.90
2023-04-24T07:48:41.091Z,99.90
2023-04-24T07:51:11.204Z,99.90
2023-04-24T07:53:39.421Z,99.90
2023-04-24T07:56:07.721Z,99.90
2023-04-24T07:58:36.342Z,99.90
2023-04-24T08:01:04.599Z,99.90
2023-04-24T08:03:34.374Z,99.90
2023-04-24T08:06:03.027Z,99.90
2023-04-24T08:08:31.470Z,99.90
2023-04-24T08:10:59.860Z,99.90
2023-04-24T08:13:28.053Z,99.90
2023-04-24T08:15:56.359Z,99.90
2023-04-24T08:18:24.805Z,99.90
2023-04-24T08:20:54.496Z,99.90
2023-04-24T08:23:23.144Z,99.90
2023-04-24T08:25:51.374Z,99.90
2023-04-24T08:28:21.328Z,99.90
2023-04-24T08:30:49.836Z,99.90
2023-04-24T08:33:18.079Z,99.90
2023-04-24T08:35:46.315Z,99.90
2023-04-24T08:38:16.002Z,99.90
2023-04-24T08:40:47.113Z,99.90
2023-04-24T08:43:16.787Z,99.90
2023-04-24T08:45:45.157Z,99.90
2023-04-24T08:48:27.430Z,99.90
2023-04-24T08:50:59.935Z,99.90
2023-04-24T08:53:30.788Z,99.90
2023-04-24T08:55:59.134Z,99.90
2023-04-24T08:58:28.147Z,99.90
2023-04-24T09:00:57.381Z,99.90
2023-04-24T09:03:26.780Z,99.90
2023-04-24T09:05:56.606Z,99.90
2023-04-24T09:08:27.134Z,99.90
2023-04-24T09:10:59.316Z,99.90
2023-04-24T09:13:27.946Z,99.90
2023-04-24T09:15:58.479Z,99.90
2023-04-24T09:18:27.952Z,99.90
2023-04-24T09:21:04.966Z,99.90
2023-04-24T09:23:34.251Z,99.90
2023-04-24T09:26:06.892Z,99.90
2023-04-24T09:28:38.031Z,99.90
2023-04-24T09:31:08.471Z,99.90
2023-04-24T09:33:37.162Z,99.90
2023-04-24T09:36:07.138Z,99.90
2023-04-24T09:38:36.839Z,99.90
2023-04-24T09:41:08.505Z,99.90
2023-04-24T09:43:37.854Z,99.90
2023-04-24T09:46:10.715Z,99.90
2023-04-24T09:48:40.182Z,99.90
2023-04-24T09:51:11.820Z,99.90
2023-04-24T09:53:41.327Z,99.90
2023-04-24T09:56:15.372Z,99.90
2023-04-24T09:58:43.575Z,99.90
2023-04-24T10:01:11.929Z,99.90
2023-04-24T10:03:40.167Z,99.90
2023-04-24T10:06:10.269Z,99.90
2023-04-24T10:08:39.484Z,99.90
2023-04-24T10:11:08.622Z,99.20
2023-04-24T10:13:38.934Z,99.50
2023-04-24T10:16:08.394Z,99.90
2023-04-24T10:18:37.634Z,99.90
2023-04-24T10:21:05.893Z,99.90
2023-04-24T10:23:34.856Z,99.90
2023-04-24T10:26:03.585Z,99.90
2023-04-24T10:28:34.271Z,99.90
2023-04-24T10:31:04.196Z,99.90
2023-04-24T10:33:33.205Z,99.90
2023-04-24T10:36:02.225Z,99.90
2023-04-24T10:38:31.588Z,99.90
2023-04-24T10:41:09.318Z,99.90
2023-04-24T10:43:37.786Z,99.90
2023-04-24T10:46:08.509Z,99.90
2023-04-24T10:48:36.786Z,99.90
2023-04-24T10:51:05.255Z,98.40
2023-04-24T10:53:37.090Z,99.90
2023-04-24T10:56:07.430Z,99.90
2023-04-24T10:58:41.250Z,99.90
2023-04-24T11:01:11.757Z,99.90
2023-04-24T11:03:43.058Z,99.90
2023-04-24T11:06:11.679Z,98.50
2023-04-24T11:08:41.392Z,98.60
2023-04-24T11:11:14.152Z,97.00
2023-04-24T11:14:07.375Z,97.70
2023-04-24T11:16:41.135Z,95.80
2023-04-24T11:19:11.541Z,97.00
2023-04-24T11:21:44.537Z,97.80
2023-04-24T11:24:32.846Z,99.90
2023-04-24T11:27:07.813Z,99.00
2023-04-24T11:29:44.950Z,99.30
2023-04-24T11:32:32.267Z,97.80
2023-04-24T11:35:02.541Z,96.20
2023-04-24T11:37:35.857Z,98.00
2023-04-24T11:40:05.729Z,98.00
2023-04-24T11:42:36.747Z,96.30
2023-04-24T11:45:10.521Z,97.30
2023-04-24T11:47:41.231Z,98.00
2023-04-24T11:50:12.005Z,98.70
2023-04-24T11:52:42.220Z,99.90
2023-04-24T11:55:24.579Z,95.60
2023-04-24T11:57:58.445Z,95.20
2023-04-24T12:00:28.532Z,93.30
2023-04-24T12:03:08.589Z,92.80
2023-04-24T12:05:37.686Z,94.00
2023-04-24T12:08:07.661Z,93.00
2023-04-24T12:10:36.814Z,93.20
2023-04-24T12:13:05.447Z,94.00
2023-04-24T12:15:33.878Z,93.50
2023-04-24T12:18:02.226Z,93.60
2023-04-24T12:20:33.430Z,93.90
2023-04-24T12:23:03.176Z,92.90
2023-04-24T12:25:33.054Z,92.10
2023-04-24T12:28:13.054Z,92.50
2023-04-24T12:30:45.353Z,92.10
2023-04-24T12:33:13.757Z,91.90
2023-04-24T12:35:43.550Z,92.30
2023-04-24T12:38:13.930Z,91.30
2023-04-24T12:40:43.155Z,91.80
2023-04-24T12:43:18.548Z,91.60
2023-04-24T12:45:47.032Z,92.20
2023-04-24T12:48:16.104Z,99.90
2023-04-24T12:50:47.286Z,93.60
2023-04-24T12:53:16.438Z,93.10
2023-04-24T12:55:45.660Z,92.60
2023-04-24T12:58:13.827Z,93.30
2023-04-24T13:00:44.550Z,93.20
2023-04-24T13:03:13.684Z,92.80
2023-04-24T13:05:42.332Z,91.60
2023-04-24T13:08:13.848Z,91.50
2023-04-24T13:10:42.737Z,93.00
2023-04-24T13:13:12.810Z,93.80
2023-04-24T13:15:41.215Z,94.10
2023-04-24T13:18:09.540Z,94.70
2023-04-24T13:20:37.845Z,93.70
2023-04-24T13:23:06.212Z,93.50
2023-04-24T13:25:38.488Z,93.50
2023-04-24T13:28:06.772Z,99.90
2023-04-24T13:30:36.385Z,97.20
2023-04-24T13:33:04.971Z,94.20
2023-04-24T13:35:33.201Z,94.90
2023-04-24T13:38:02.319Z,94.80
2023-04-24T13:40:30.555Z,99.90
2023-04-24T13:43:00.228Z,94.00
2023-04-24T13:45:28.594Z,93.90
2023-04-24T13:47:58.018Z,94.60
2023-04-24T13:50:26.565Z,95.40
2023-04-24T13:52:55.291Z,98.90
2023-04-24T13:55:23.526Z,99.90
2023-04-24T13:57:53.247Z,99.90
2023-04-24T14:00:23.561Z,99.90
2023-04-24T14:02:51.910Z,99.90
2023-04-24T14:05:22.074Z,99.90
2023-04-24T14:07:50.380Z,99.90
2023-04-24T14:10:18.714Z,99.90
2023-04-24T14:12:47.115Z,99.90
2023-04-24T14:15:15.670Z,99.90
2023-04-24T14:17:45.422Z,99.90
2023-04-24T14:20:14.865Z,99.90
2023-04-24T14:22:43.191Z,99.90
2023-04-24T14:25:11.789Z,99.90
2023-04-24T14:27:41.140Z,99.90
2023-04-24T14:30:10.445Z,99.90
2023-04-24T14:32:40.484Z,99.90
2023-04-24T14:35:10.966Z,99.90
2023-04-24T14:37:42.157Z,99.90
2023-04-24T14:40:29.915Z,99.90
2023-04-24T14:42:59.944Z,99.90
2023-04-24T14:45:28.689Z,99.90
2023-04-24T14:47:58.736Z,99.90
2023-04-24T14:50:29.383Z,99.90
2023-04-24T14:52:58.701Z,99.90
2023-04-24T14:55:27.581Z,99.90
2023-04-24T14:57:55.939Z,99.90
2023-04-24T15:00:25.387Z,99.90
2023-04-24T15:02:53.835Z,99.90
2023-04-24T15:05:24.132Z,99.90
2023-04-24T15:07:54.112Z,99.90
2023-04-24T15:10:23.985Z,99.90
2023-04-24T15:12:52.303Z,99.90
2023-04-24T15:15:20.638Z,99.90
2023-04-24T15:17:48.948Z,99.90
2023-04-24T15:20:17.465Z,99.90
2023-04-24T15:22:45.632Z,99.90
2023-04-24T15:25:15.301Z,99.30
2023-04-24T15:27:44.433Z,99.60
2023-04-24T15:30:13.972Z,98.70
2023-04-24T15:32:42.321Z,99.10
2023-04-24T15:35:12.487Z,98.10
2023-04-24T15:37:41.247Z,96.50
2023-04-24T15:40:12.323Z,96.20
2023-04-24T15:42:42.932Z,96.60
2023-04-24T15:45:12.690Z,95.30
2023-04-24T15:47:41.135Z,94.90
2023-04-24T15:50:14.226Z,92.80
2023-04-24T15:52:43.124Z,91.00
2023-04-24T15:55:13.340Z,92.30
2023-04-24T15:57:43.925Z,92.60
2023-04-24T16:00:13.821Z,91.90
2023-04-24T16:02:42.267Z,91.30
2023-04-24T16:05:11.231Z,90.80
2023-04-24T16:07:40.194Z,91.10
2023-04-24T16:10:10.222Z,88.60
2023-04-24T16:12:38.506Z,91.90
2023-04-24T16:15:09.237Z,90.30
2023-04-24T16:17:37.596Z,99.50
2023-04-24T16:20:07.677Z,87.60
2023-04-24T16:22:36.023Z,89.30
2023-04-24T16:25:04.351Z,88.50
2023-04-24T16:27:32.588Z,87.30
2023-04-24T16:30:00.819Z,87.60
2023-04-24T16:32:31.111Z,90.40
2023-04-24T16:34:59.537Z,89.10
2023-04-24T16:37:28.537Z,88.60
2023-04-24T16:39:56.952Z,90.80
2023-04-24T16:42:25.465Z,89.30
2023-04-24T16:44:53.846Z,92.20
2023-04-24T16:47:22.195Z,91.20
2023-04-24T16:49:52.409Z,92.30
2023-04-24T16:52:20.697Z,90.70
2023-04-24T16:54:49.160Z,90.80
2023-04-24T16:57:17.452Z,91.60
2023-04-24T16:59:46.027Z,92.50
2023-04-24T17:02:14.341Z,90.10
2023-04-24T17:04:42.759Z,91.20
2023-04-24T17:07:12.558Z,91.70
2023-04-24T17:09:40.923Z,92.30
2023-04-24T17:12:10.986Z,99.90
2023-04-24T17:14:39.189Z,91.20
2023-04-24T17:17:07.583Z,92.50
2023-04-24T17:19:35.882Z,92.40
2023-04-24T17:22:05.937Z,92.50
2023-04-24T17:24:36.354Z,91.70
2023-04-24T17:27:13.766Z,91.70
2023-04-24T17:29:43.668Z,92.20
2023-04-24T17:32:12.037Z,93.10
2023-04-24T17:34:40.835Z,94.00
2023-04-24T17:37:09.214Z,92.80
2023-04-24T17:39:38.881Z,91.50
2023-04-24T17:42:07.500Z,91.60
2023-04-24T17:44:36.459Z,92.50
2023-04-24T17:47:05.140Z,91.60
2023-04-24T17:49:34.264Z,92.90
2023-04-24T17:52:02.586Z,95.10
2023-04-24T17:54:30.782Z,96.70
2023-04-24T17:57:00.607Z,96.80
2023-04-24T17:59:28.888Z,97.10
2023-04-24T18:01:57.961Z,97.20
2023-04-24T18:04:27.182Z,99.30
2023-04-24T18:06:55.570Z,99.90
2023-04-24T18:09:23.847Z,99.90
2023-04-24T18:11:52.171Z,99.90
2023-04-24T18:14:21.717Z,99.90
2023-04-24T18:16:49.908Z,99.90
2023-04-24T18:19:18.268Z,99.90
2023-04-24T18:21:46.419Z,99.90
2023-04-24T18:24:14.688Z,99.90
2023-04-24T18:26:42.936Z,99.90
2023-04-24T18:29:11.192Z,99.90
2023-04-24T18:31:41.009Z,99.90
2023-04-24T18:34:09.196Z,99.90
2023-04-24T18:36:37.456Z,99.90
2023-04-24T18:39:06.018Z,99.90
2023-04-24T18:41:35.341Z,99.90
2023-04-24T18:44:03.660Z,99.90
2023-04-24T18:46:37.885Z,99.90
2023-04-24T18:49:07.712Z,99.90
2023-04-24T18:51:46.646Z,99.90
2023-04-24T18:54:21.269Z,99.90
2023-04-24T18:56:49.627Z,99.90
2023-04-24T18:59:17.810Z,99.90
2023-04-24T19:01:46.223Z,99.90
2023-04-24T19:04:16.084Z,99.90
2023-04-24T19:06:44.512Z,99.90
2023-04-24T19:09:12.715Z,99.90
2023-04-24T19:11:41.835Z,99.90
2023-04-24T19:14:11.104Z,99.90
2023-04-24T19:16:39.391Z,99.90
2023-04-24T19:19:07.726Z,99.90
2023-04-24T19:21:37.436Z,99.90
2023-04-24T19:24:06.080Z,99.90
2023-04-24T19:26:34.510Z,99.90
2023-04-24T19:29:03.445Z,99.90
2023-04-24T19:31:31.768Z,99.90
2023-04-24T19:34:00.117Z,99.90
2023-04-24T19:36:28.613Z,99.90
2023-04-24T19:38:58.297Z,99.90
2023-04-24T19:41:26.582Z,99.90
2023-04-24T19:43:54.853Z,99.90
2023-04-24T19:46:23.411Z,99.90
2023-04-24T19:48:52.238Z,99.90
2023-04-24T19:51:20.724Z,99.90
2023-04-24T19:53:49.541Z,99.90
2023-04-24T19:56:19.205Z,99.90
2023-04-24T19:58:47.690Z,99.90
2023-04-24T20:01:16.252Z,99.90
2023-04-24T20:03:44.885Z,99.90
2023-04-24T20:06:13.227Z,99.90
2023-04-24T20:08:43.171Z,99.90
2023-04-24T20:11:11.801Z,99.90
2023-04-24T20:13:41.422Z,99.90
2023-04-24T20:16:11.320Z,99.90
2023-04-24T20:18:39.885Z,99.90
2023-04-24T20:21:08.197Z,99.90
2023-04-24T20:23:36.710Z,99.90
2023-04-24T20:26:05.217Z,99.90
2023-04-24T20:28:33.441Z,99.90
2023-04-24T20:31:04.509Z,99.90
2023-04-24T20:33:32.764Z,99.90
2023-04-24T20:36:00.967Z,99.90
2023-04-24T20:38:29.674Z,99.90
2023-04-24T20:40:58.575Z,99.90
2023-04-24T20:43:29.017Z,99.90
2023-04-24T20:45:59.446Z,99.90
2023-04-24T20:48:29.215Z,99.90
2023-04-24T20:50:57.552Z,99.90
2023-04-24T20:53:25.922Z,99.90
2023-04-24T20:55:54.202Z,99.90
2023-04-24T20:58:23.928Z,99.90
2023-04-24T21:00:52.885Z,99.90
2023-04-24T21:03:21.386Z,99.90
2023-04-24T21:05:51.285Z,99.90
2023-04-24T21:08:19.523Z,99.90
2023-04-24T21:10:47.740Z,99.90
2023-04-24T21:13:15.908Z,99.90
2023-04-24T21:15:44.474Z,99.90
2023-04-24T21:18:12.994Z,99.90
2023-04-24T21:20:41.445Z,99.90
2023-04-24T21:23:11.085Z,99.90
2023-04-24T21:25:40.020Z,99.90
2023-04-24T21:28:08.809Z,99.90
2023-04-24T21:30:37.117Z,99.90
2023-04-24T21:33:05.499Z,99.90
2023-04-24T21:35:34.249Z,99.90
2023-04-24T21:38:02.557Z,99.90
2023-04-24T21:40:32.263Z,99.90
2023-04-24T21:43:00.689Z,99.90
2023-04-24T21:45:28.936Z,99.90
2023-04-24T21:47:58.573Z,99.90
2023-04-24T21:50:26.891Z,99.90
2023-04-24T21:52:55.077Z,99.90
2023-04-24T21:55:23.301Z,99.90
2023-04-24T21:57:52.983Z,1.00
2023-04-24T22:00:21.525Z,1.00
2023-04-24T22:02:51.256Z,1.00
2023-04-24T22:05:20.460Z,1.00
2023-04-24T22:07:50.690Z,1.00
2023-04-24T22:10:19.507Z,1.00
2023-04-24T22:12:48.232Z,73.90
2023-04-24T22:15:17.843Z,99.90
2023-04-24T22:17:46.220Z,99.90
2023-04-24T22:20:15.095Z,99.90
2023-04-24T22:22:43.547Z,99.90
2023-04-24T22:25:11.980Z,1.00
2023-04-24T22:27:41.254Z,1.00
2023-04-24T22:30:11.167Z,1.00
2023-04-24T22:32:40.876Z,99.90
2023-04-24T22:35:10.366Z,99.90
2023-04-24T22:37:38.732Z,99.90
2023-04-24T22:40:08.621Z,99.90
2023-04-24T22:42:37.219Z,99.90
2023-04-24T22:45:06.186Z,99.90
2023-04-24T22:47:34.418Z,99.90
2023-04-24T22:50:06.032Z,99.90
2023-04-24T22:52:35.709Z,99.90
2023-04-24T22:55:04.045Z,99.90
2023-04-24T22:57:32.267Z,99.90
2023-04-24T23:00:00.708Z,99.90
2023-04-24T23:02:29.703Z,99.90
2023-04-24T23:04:57.903Z,1.00
2023-04-24T23:07:29.075Z,1.00
2023-04-24T23:09:57.238Z,1.00
2023-04-24T23:12:25.777Z,1.00
2023-04-24T23:14:54.615Z,1.00
2023-04-24T23:17:23.047Z,1.00
2023-04-24T23:19:51.315Z,1.00
2023-04-24T23:22:19.584Z,1.00
2023-04-24T23:24:49.226Z,1.00
2023-04-24T23:27:17.563Z,22.70
2023-04-24T23:29:45.890Z,92.20
2023-04-24T23:32:14.178Z,99.90
2023-04-24T23:34:42.465Z,99.90
2023-04-24T23:37:10.847Z,99.90
2023-04-24T23:39:39.127Z,99.90
2023-04-24T23:42:08.899Z,99.90
2023-04-24T23:44:37.248Z,99.90
2023-04-24T23:47:05.404Z,1.00
2023-04-24T23:49:33.609Z,1.00
2023-04-24T23:52:01.858Z,1.00
2023-04-24T23:54:30.098Z,1.00
2023-04-24T23:56:58.374Z,31.80
2023-04-24T23:59:31.563Z,99.90
